createdAt,value
2022-10-05T00:01:47.331Z,99.58
2022-10-05T00:04:16.903Z,99.90
2022-10-05T00:06:45.952Z,100.00
2022-10-05T00:09:19.053Z,100.00
2022-10-05T00:11:46.233Z,99.81
2022-10-05T00:14:27.727Z,99.42
2022-10-05T00:16:55.638Z,99.85
2022-10-05T00:19:30.973Z,100.00
2022-10-05T00:22:19.699Z,99.33
2022-10-05T00:24:48.101Z,98.82
2022-10-05T00:27:21.412Z,98.37
2022-10-05T00:30:20.035Z,98.34
2022-10-05T00:32:47.074Z,97.90
2022-10-05T00:35:15.391Z,97.87
2022-10-05T00:37:42.097Z,98.14
2022-10-05T00:40:17.358Z,97.98
2022-10-05T00:43:06.836Z,98.13
2022-10-05T00:45:42.999Z,98.96
2022-10-05T00:48:37.096Z,97.92
2022-10-05T00:51:20.882Z,98.08
2022-10-05T00:54:20.695Z,98.51
2022-10-05T00:57:05.483Z,98.51
2022-10-05T00:59:53.145Z,99.01
2022-10-05T01:02:36.499Z,98.62
2022-10-05T01:05:15.769Z,98.24
2022-10-05T01:07:58.717Z,98.35
2022-10-05T01:11:01.335Z,97.97
2022-10-05T01:13:53.435Z,98.28
2022-10-05T01:16:31.318Z,98.16
2022-10-05T01:18:57.714Z,98.67
2022-10-05T01:21:32.176Z,97.98
2022-10-05T01:24:22.366Z,98.75
2022-10-05T01:27:10.325Z,99.50
2022-10-05T01:30:06.501Z,98.05
2022-10-05T01:33:01.150Z,98.79
2022-10-05T01:35:53.847Z,99.56
2022-10-05T01:38:32.617Z,99.73
2022-10-05T01:41:19.767Z,98.88
2022-10-05T01:43:52.353Z,99.46
2022-10-05T01:46:30.619Z,98.96
2022-10-05T01:49:04.131Z,98.21
2022-10-05T01:51:33.505Z,98.51
2022-10-05T01:54:28.101Z,98.32
2022-10-05T01:57:00.802Z,99.31
2022-10-05T02:00:12.525Z,98.92
2022-10-05T02:02:48.309Z,99.12
2022-10-05T02:05:28.805Z,98.53
2022-10-05T02:08:01.841Z,98.19
2022-10-05T02:10:37.352Z,98.27
2022-10-05T02:13:13.093Z,98.64
2022-10-05T02:15:46.227Z,98.71
2022-10-05T02:18:19.727Z,99.23
2022-10-05T02:20:47.777Z,98.34
2022-10-05T02:23:26.966Z,98.58
2022-10-05T02:25:56.249Z,98.15
2022-10-05T02:28:29.476Z,97.97
2022-10-05T02:31:06.044Z,98.31
2022-10-05T02:33:33.810Z,97.93
2022-10-05T02:36:18.506Z,98.60
2022-10-05T02:39:16.072Z,99.71
2022-10-05T02:41:48.659Z,99.26
2022-10-05T02:44:40.592Z,98.49
2022-10-05T02:47:18.197Z,99.25
2022-10-05T02:49:58.146Z,99.76
2022-10-05T02:53:18.381Z,99.40
2022-10-05T02:56:07.139Z,98.96
2022-10-05T02:58:53.375Z,98.89
2022-10-05T03:01:32.204Z,99.30
2022-10-05T03:04:12.697Z,99.40
2022-10-05T03:06:51.585Z,100.00
2022-10-05T03:09:22.590Z,100.00
2022-10-05T03:12:27.473Z,100.00
2022-10-05T03:15:25.207Z,100.00
2022-10-05T03:18:11.190Z,100.00
2022-10-05T03:20:37.694Z,100.00
2022-10-05T03:23:09.648Z,99.30
2022-10-05T03:25:54.355Z,99.42
2022-10-05T03:28:32.332Z,99.34
2022-10-05T03:31:13.095Z,99.47
2022-10-05T03:33:43.607Z,99.87
2022-10-05T03:36:26.445Z,99.71
2022-10-05T03:39:08.039Z,99.28
2022-10-05T03:42:09.035Z,99.58
2022-10-05T03:44:56.815Z,99.60
2022-10-05T03:47:39.319Z,99.58
2022-10-05T03:50:44.670Z,98.86
2022-10-05T03:53:18.215Z,99.53
2022-10-05T03:55:53.693Z,99.49
2022-10-05T03:58:52.981Z,99.72
2022-10-05T04:01:25.349Z,99.77
2022-10-05T04:03:57.861Z,99.29
2022-10-05T04:06:27.925Z,99.50
2022-10-05T04:09:01.272Z,98.90
2022-10-05T04:11:38.066Z,98.79
2022-10-05T04:14:07.131Z,98.48
2022-10-05T04:16:51.441Z,99.55
2022-10-05T04:19:22.181Z,99.58
2022-10-05T04:22:25.310Z,99.97
2022-10-05T04:25:17.870Z,99.93
2022-10-05T04:27:55.126Z,99.62
2022-10-05T04:30:44.808Z,99.88
2022-10-05T04:33:13.622Z,99.55
2022-10-05T04:36:11.741Z,99.56
2022-10-05T04:39:03.674Z,99.56
2022-10-05T04:42:00.384Z,99.86
2022-10-05T04:45:11.499Z,99.34
2022-10-05T04:48:08.357Z,99.61
2022-10-05T04:50:48.949Z,98.93
2022-10-05T04:53:30.437Z,99.11
2022-10-05T04:56:07.995Z,99.19
2022-10-05T04:59:02.681Z,99.59
2022-10-05T05:02:04.285Z,99.80
2022-10-05T05:04:52.253Z,100.00
2022-10-05T05:08:06.984Z,100.00
2022-10-05T05:10:58.069Z,100.00
2022-10-05T05:14:05.324Z,99.67
2022-10-05T05:16:37.584Z,100.00
2022-10-05T05:19:25.472Z,99.67
2022-10-05T05:21:56.859Z,99.29
2022-10-05T05:24:33.216Z,99.78
2022-10-05T05:27:02.579Z,100.00
2022-10-05T05:29:38.003Z,100.00
2022-10-05T05:32:12.969Z,99.23
2022-10-05T05:34:54.614Z,99.80
2022-10-05T05:37:56.525Z,100.00
2022-10-05T05:40:32.001Z,99.15
2022-10-05T05:43:15.253Z,100.00
2022-10-05T05:45:45.943Z,100.00
2022-10-05T05:48:21.513Z,100.00
2022-10-05T05:50:58.283Z,100.00
2022-10-05T05:53:39.919Z,100.00
2022-10-05T05:56:14.842Z,100.00
2022-10-05T05:59:06.430Z,100.00
2022-10-05T06:01:43.587Z,100.00
2022-10-05T06:04:19.081Z,100.00
2022-10-05T06:06:51.857Z,100.00
2022-10-05T06:09:51.241Z,100.00
2022-10-05T06:12:29.534Z,100.00
2022-10-05T06:15:05.310Z,100.00
2022-10-05T06:17:48.032Z,100.00
2022-10-05T06:20:43.422Z,100.00
2022-10-05T06:23:16.887Z,100.00
2022-10-05T06:26:10.988Z,100.00
2022-10-05T06:28:37.936Z,100.00
2022-10-05T06:31:15.192Z,100.00
2022-10-05T06:33:52.137Z,100.00
2022-10-05T06:36:27.165Z,100.00
2022-10-05T06:39:10.837Z,100.00
2022-10-05T06:42:05.182Z,100.00
2022-10-05T06:44:43.586Z,100.00
2022-10-05T06:47:28.138Z,100.00
2022-10-05T06:50:16.708Z,100.00
2022-10-05T06:52:52.315Z,100.00
2022-10-05T06:55:44.477Z,100.00
2022-10-05T06:58:36.721Z,100.00
2022-10-05T07:01:04.829Z,100.00
2022-10-05T07:03:41.449Z,100.00
2022-10-05T07:06:21.262Z,100.00
2022-10-05T07:09:09.231Z,100.00
2022-10-05T07:12:13.271Z,100.00
2022-10-05T07:14:58.709Z,100.00
2022-10-05T07:17:53.027Z,100.00
2022-10-05T07:20:48.337Z,100.00
2022-10-05T07:23:30.898Z,100.00
2022-10-05T07:26:06.665Z,98.60
2022-10-05T07:28:52.362Z,98.83
2022-10-05T07:31:49.174Z,97.35
2022-10-05T07:34:26.461Z,97.31
2022-10-05T07:37:20.272Z,96.66
2022-10-05T07:40:18.044Z,96.60
2022-10-05T07:42:52.329Z,96.01
2022-10-05T07:45:33.834Z,95.06
2022-10-05T07:48:21.064Z,93.89
2022-10-05T07:51:06.475Z,92.80
2022-10-05T07:53:36.755Z,90.11
2022-10-05T07:56:16.183Z,90.37
2022-10-05T07:59:01.630Z,88.50
2022-10-05T08:01:31.745Z,88.69
2022-10-05T08:04:10.250Z,86.64
2022-10-05T08:06:54.071Z,85.85
2022-10-05T08:09:36.310Z,85.28
2022-10-05T08:12:30.907Z,83.92
2022-10-05T08:15:20.495Z,82.58
2022-10-05T08:18:05.550Z,82.84
2022-10-05T08:21:01.575Z,80.54
2022-10-05T08:23:33.859Z,78.28
2022-10-05T08:26:14.964Z,79.39
2022-10-05T08:28:46.982Z,77.63
2022-10-05T08:31:27.014Z,77.86
2022-10-05T08:34:31.750Z,77.55
2022-10-05T08:37:06.978Z,77.04
2022-10-05T08:39:49.918Z,77.18
2022-10-05T08:42:25.377Z,77.19
2022-10-05T08:45:00.087Z,76.46
2022-10-05T08:47:38.626Z,77.38
2022-10-05T08:50:46.875Z,75.30
2022-10-05T08:53:20.544Z,75.41
2022-10-05T08:56:32.190Z,76.12
2022-10-05T08:59:18.040Z,76.04
2022-10-05T09:01:58.570Z,75.53
2022-10-05T09:04:40.051Z,75.13
2022-10-05T09:07:18.553Z,72.63
2022-10-05T09:09:51.034Z,72.64
2022-10-05T09:12:51.474Z,71.98
2022-10-05T09:15:33.654Z,72.94
2022-10-05T09:18:14.099Z,71.06
2022-10-05T09:20:55.214Z,70.73
2022-10-05T09:23:42.787Z,70.16
2022-10-05T09:26:40.368Z,69.74
2022-10-05T09:29:22.027Z,67.87
2022-10-05T09:32:10.787Z,64.65
2022-10-05T09:35:15.034Z,63.56
2022-10-05T09:37:44.598Z,63.10
2022-10-05T09:40:29.779Z,62.61
2022-10-05T09:43:22.924Z,62.07
2022-10-05T09:45:55.603Z,63.37
2022-10-05T09:48:40.878Z,60.18
2022-10-05T09:51:46.325Z,61.34
2022-10-05T09:54:34.861Z,60.18
2022-10-05T09:57:42.253Z,61.06
2022-10-05T10:00:21.892Z,60.01
2022-10-05T10:03:16.101Z,57.65
2022-10-05T10:06:05.403Z,59.74
2022-10-05T10:08:57.988Z,59.67
2022-10-05T10:12:02.362Z,57.44
2022-10-05T10:14:49.485Z,57.36
2022-10-05T10:17:18.753Z,54.21
2022-10-05T10:20:23.597Z,54.93
2022-10-05T10:23:14.073Z,55.92
2022-10-05T10:26:15.890Z,55.82
2022-10-05T10:29:00.457Z,51.14
2022-10-05T10:31:39.095Z,52.35
2022-10-05T10:34:42.703Z,54.32
2022-10-05T10:37:34.359Z,47.96
2022-10-05T10:40:35.004Z,48.34
2022-10-05T10:43:07.486Z,47.00
2022-10-05T10:46:09.317Z,45.10
2022-10-05T10:48:51.325Z,46.13
2022-10-05T10:51:43.069Z,46.60
2022-10-05T10:54:23.298Z,45.59
2022-10-05T10:57:11.400Z,48.34
2022-10-05T10:59:43.782Z,47.82
2022-10-05T11:02:37.387Z,44.59
2022-10-05T11:05:36.142Z,48.49
2022-10-05T11:08:18.295Z,46.04
2022-10-05T11:10:59.885Z,46.92
2022-10-05T11:14:02.957Z,48.70
2022-10-05T11:16:57.312Z,43.81
2022-10-05T11:19:59.609Z,47.39
2022-10-05T11:22:50.228Z,50.29
2022-10-05T11:25:27.682Z,46.72
2022-10-05T11:27:55.115Z,46.71
2022-10-05T11:30:40.055Z,46.83
2022-10-05T11:33:37.519Z,46.57
2022-10-05T11:36:03.794Z,46.03
2022-10-05T11:38:49.447Z,45.38
2022-10-05T11:41:53.543Z,45.61
2022-10-05T11:44:29.270Z,46.79
2022-10-05T11:47:21.578Z,43.78
2022-10-05T11:50:20.343Z,46.57
2022-10-05T11:53:01.691Z,42.91
2022-10-05T11:55:37.366Z,42.97
2022-10-05T11:58:24.077Z,43.72
2022-10-05T12:00:59.834Z,42.49
2022-10-05T12:03:43.237Z,42.23
2022-10-05T12:06:25.587Z,40.47
2022-10-05T12:09:30.673Z,40.98
2022-10-05T12:12:22.971Z,41.17
2022-10-05T12:15:12.059Z,42.96
2022-10-05T12:17:58.189Z,42.47
2022-10-05T12:20:38.841Z,38.94
2022-10-05T12:23:21.174Z,39.13
2022-10-05T12:25:56.650Z,40.60
2022-10-05T12:28:33.076Z,41.02
2022-10-05T12:31:15.525Z,39.63
2022-10-05T12:33:50.955Z,41.35
2022-10-05T12:36:19.653Z,40.86
2022-10-05T12:39:05.122Z,42.13
2022-10-05T12:41:49.711Z,39.39
2022-10-05T12:44:18.913Z,38.55
2022-10-05T12:46:54.691Z,37.58
2022-10-05T12:49:21.020Z,40.59
2022-10-05T12:52:06.399Z,36.66
2022-10-05T12:54:53.545Z,36.71
2022-10-05T12:57:37.419Z,37.75
2022-10-05T13:00:10.034Z,38.06
2022-10-05T13:02:46.847Z,37.74
2022-10-05T13:05:23.502Z,37.64
2022-10-05T13:08:01.740Z,37.70
2022-10-05T13:10:35.255Z,38.03
2022-10-05T13:13:01.565Z,37.67
2022-10-05T13:15:49.875Z,38.03
2022-10-05T13:18:54.304Z,37.88
2022-10-05T13:21:26.880Z,37.35
2022-10-05T13:24:29.916Z,38.52
2022-10-05T13:27:08.408Z,37.25
2022-10-05T13:29:51.046Z,37.32
2022-10-05T13:32:25.211Z,38.36
2022-10-05T13:35:02.610Z,35.00
2022-10-05T13:37:39.326Z,35.93
2022-10-05T13:40:33.674Z,36.61
2022-10-05T13:43:06.154Z,36.49
2022-10-05T13:45:51.213Z,36.36
2022-10-05T13:48:20.558Z,36.37
2022-10-05T13:51:05.249Z,37.67
2022-10-05T13:53:55.988Z,36.10
2022-10-05T13:56:33.437Z,36.58
2022-10-05T13:59:25.130Z,37.59
2022-10-05T14:02:06.818Z,34.03
2022-10-05T14:04:47.904Z,35.60
2022-10-05T14:07:31.128Z,33.34
2022-10-05T14:09:59.546Z,33.71
2022-10-05T14:12:27.367Z,35.16
2022-10-05T14:14:56.898Z,35.93
2022-10-05T14:17:43.777Z,34.66
2022-10-05T14:20:36.440Z,35.29
2022-10-05T14:23:18.520Z,35.43
2022-10-05T14:25:53.911Z,33.43
2022-10-05T14:28:33.715Z,33.29
2022-10-05T14:31:05.963Z,34.99
2022-10-05T14:33:36.251Z,35.31
2022-10-05T14:36:03.902Z,37.06
2022-10-05T14:38:49.630Z,38.08
2022-10-05T14:41:27.259Z,37.92
2022-10-05T14:44:13.197Z,37.03
2022-10-05T14:46:52.155Z,39.32
2022-10-05T14:49:29.047Z,37.60
2022-10-05T14:51:56.911Z,39.05
2022-10-05T14:54:32.443Z,38.66
2022-10-05T14:57:14.105Z,40.14
2022-10-05T14:59:47.945Z,41.84
2022-10-05T15:02:53.159Z,40.79
2022-10-05T15:05:31.592Z,40.65
2022-10-05T15:08:20.965Z,40.12
2022-10-05T15:10:50.235Z,43.03
2022-10-05T15:13:24.067Z,40.64
2022-10-05T15:15:56.519Z,40.05
2022-10-05T15:18:39.481Z,40.01
2022-10-05T15:21:48.601Z,41.68
2022-10-05T15:24:17.977Z,41.40
2022-10-05T15:26:54.455Z,42.55
2022-10-05T15:29:36.180Z,42.55
2022-10-05T15:32:30.149Z,42.61
2022-10-05T15:35:10.708Z,41.95
2022-10-05T15:37:47.599Z,42.62
2022-10-05T15:40:50.855Z,45.66
2022-10-05T15:43:20.921Z,45.70
2022-10-05T15:46:10.240Z,47.72
2022-10-05T15:48:54.017Z,48.17
2022-10-05T15:51:45.143Z,47.42
2022-10-05T15:54:42.984Z,47.67
2022-10-05T15:57:32.668Z,52.87
2022-10-05T16:00:11.905Z,51.61
2022-10-05T16:02:48.146Z,54.46
2022-10-05T16:05:43.765Z,52.32
2022-10-05T16:08:51.421Z,55.08
2022-10-05T16:11:25.259Z,55.02
2022-10-05T16:14:15.457Z,52.83
2022-10-05T16:16:58.952Z,52.78
2022-10-05T16:19:34.609Z,56.02
2022-10-05T16:22:47.303Z,58.61
2022-10-05T16:25:22.163Z,59.78
2022-10-05T16:28:05.192Z,61.46
2022-10-05T16:30:42.184Z,62.03
2022-10-05T16:33:14.182Z,63.44
2022-10-05T16:35:53.810Z,63.11
2022-10-05T16:38:53.631Z,63.64
2022-10-05T16:41:24.764Z,65.30
2022-10-05T16:44:01.691Z,66.35
2022-10-05T16:46:59.388Z,66.73
2022-10-05T16:50:10.880Z,67.42
2022-10-05T16:52:40.085Z,67.50
2022-10-05T16:55:14.016Z,67.30
2022-10-05T16:57:48.484Z,68.51
2022-10-05T17:00:18.266Z,68.76
2022-10-05T17:03:30.062Z,69.59
2022-10-05T17:06:16.501Z,70.93
2022-10-05T17:09:18.298Z,71.55
2022-10-05T17:11:57.699Z,71.48
2022-10-05T17:14:53.830Z,71.14
2022-10-05T17:17:43.149Z,72.33
2022-10-05T17:20:17.409Z,72.69
2022-10-05T17:23:02.086Z,72.79
2022-10-05T17:25:44.665Z,73.05
2022-10-05T17:28:37.629Z,72.58
2022-10-05T17:31:21.853Z,73.85
2022-10-05T17:34:16.832Z,74.08
2022-10-05T17:36:51.173Z,74.11
2022-10-05T17:39:22.605Z,74.20
2022-10-05T17:41:49.646Z,73.96
2022-10-05T17:44:24.804Z,73.74
2022-10-05T17:46:57.135Z,74.73
2022-10-05T17:50:17.635Z,74.03
2022-10-05T17:53:03.790Z,74.31
2022-10-05T17:55:33.927Z,72.94
2022-10-05T17:58:23.391Z,75.42
2022-10-05T18:00:59.809Z,76.11
2022-10-05T18:03:49.396Z,76.84
2022-10-05T18:06:28.365Z,77.55
2022-10-05T18:09:20.915Z,76.92
2022-10-05T18:12:08.986Z,78.16
2022-10-05T18:14:57.301Z,76.49
2022-10-05T18:17:46.384Z,77.45
2022-10-05T18:20:28.428Z,77.04
2022-10-05T18:23:10.135Z,75.78
2022-10-05T18:26:09.058Z,77.03
2022-10-05T18:28:46.505Z,77.86
2022-10-05T18:31:18.854Z,77.21
2022-10-05T18:34:07.618Z,76.00
2022-10-05T18:36:56.470Z,77.46
2022-10-05T18:39:40.526Z,77.91
2022-10-05T18:42:36.061Z,77.33
2022-10-05T18:45:39.530Z,79.22
2022-10-05T18:48:35.453Z,80.30
2022-10-05T18:51:32.878Z,80.85
2022-10-05T18:54:36.989Z,82.03
2022-10-05T18:57:35.832Z,80.58
2022-10-05T19:00:11.239Z,78.48
2022-10-05T19:03:03.641Z,78.92
2022-10-05T19:05:47.439Z,79.53
2022-10-05T19:08:36.197Z,79.83
2022-10-05T19:11:24.143Z,80.53
2022-10-05T19:14:05.440Z,79.83
2022-10-05T19:16:51.522Z,79.87
2022-10-05T19:19:44.292Z,80.90
2022-10-05T19:22:31.685Z,80.95
2022-10-05T19:25:23.107Z,81.26
2022-10-05T19:28:15.255Z,80.83
2022-10-05T19:30:56.897Z,81.85
2022-10-05T19:33:42.235Z,82.76
2022-10-05T19:36:29.258Z,82.60
2022-10-05T19:39:06.701Z,82.34
2022-10-05T19:42:05.076Z,81.85
2022-10-05T19:44:53.358Z,82.86
2022-10-05T19:47:25.761Z,82.76
2022-10-05T19:49:52.125Z,82.81
2022-10-05T19:52:22.155Z,82.35
2022-10-05T19:55:02.085Z,83.47
2022-10-05T19:57:28.740Z,83.67
2022-10-05T19:59:58.257Z,83.96
2022-10-05T20:02:28.884Z,83.44
2022-10-05T20:05:06.530Z,84.18
2022-10-05T20:07:34.385Z,82.91
2022-10-05T20:10:29.113Z,83.19
2022-10-05T20:12:58.752Z,83.81
2022-10-05T20:15:45.344Z,84.31
2022-10-05T20:19:01.609Z,85.76
2022-10-05T20:21:50.362Z,85.47
2022-10-05T20:24:18.314Z,84.53
2022-10-05T20:27:04.854Z,84.40
2022-10-05T20:29:32.561Z,85.07
2022-10-05T20:32:00.250Z,85.23
2022-10-05T20:34:31.817Z,84.73
2022-10-05T20:36:58.606Z,85.43
2022-10-05T20:39:24.986Z,86.41
2022-10-05T20:41:51.475Z,85.36
2022-10-05T20:44:17.874Z,85.57
2022-10-05T20:46:46.269Z,85.42
2022-10-05T20:49:13.034Z,85.87
2022-10-05T20:51:40.178Z,86.09
2022-10-05T20:54:08.045Z,86.91
2022-10-05T20:56:34.952Z,85.89
2022-10-05T20:59:01.395Z,85.83
2022-10-05T21:01:28.917Z,85.75
2022-10-05T21:03:55.833Z,86.67
2022-10-05T21:06:22.514Z,85.33
2022-10-05T21:08:51.331Z,85.75
2022-10-05T21:11:17.796Z,85.94
2022-10-05T21:13:46.367Z,84.87
2022-10-05T21:16:18.629Z,83.71
2022-10-05T21:18:47.481Z,83.56
2022-10-05T21:21:15.394Z,83.69
2022-10-05T21:23:41.947Z,83.63
2022-10-05T21:26:08.467Z,83.14
2022-10-05T21:28:34.929Z,83.48
2022-10-05T21:31:01.461Z,83.54
2022-10-05T21:33:28.279Z,82.88
2022-10-05T21:35:54.864Z,82.58
2022-10-05T21:38:21.460Z,83.72
2022-10-05T21:40:47.881Z,83.37
2022-10-05T21:43:14.403Z,84.07
2022-10-05T21:45:42.851Z,85.12
2022-10-05T21:48:10.025Z,84.47
2022-10-05T21:50:37.834Z,84.80
2022-10-05T21:53:06.497Z,84.76
2022-10-05T21:55:35.783Z,84.84
2022-10-05T21:58:03.578Z,84.33
2022-10-05T22:00:30.615Z,84.60
2022-10-05T22:02:57.030Z,85.73
2022-10-05T22:05:23.458Z,85.02
2022-10-05T22:07:49.937Z,83.26
2022-10-05T22:10:16.452Z,85.82
2022-10-05T22:12:42.889Z,85.48
2022-10-05T22:15:09.688Z,86.08
2022-10-05T22:17:36.345Z,86.25
2022-10-05T22:20:03.639Z,86.77
2022-10-05T22:22:30.102Z,86.56
2022-10-05T22:24:56.643Z,88.08
2022-10-05T22:27:24.711Z,87.21
2022-10-05T22:29:51.624Z,85.75
2022-10-05T22:32:18.178Z,86.03
2022-10-05T22:34:44.959Z,87.35
2022-10-05T22:37:15.862Z,87.92
2022-10-05T22:39:43.017Z,88.72
2022-10-05T22:42:09.802Z,88.64
2022-10-05T22:44:36.350Z,88.40
2022-10-05T22:47:03.886Z,88.84
2022-10-05T22:49:30.267Z,87.73
2022-10-05T22:51:56.680Z,87.86
2022-10-05T22:54:31.058Z,88.31
2022-10-05T22:56:59.751Z,88.08
2022-10-05T22:59:26.144Z,86.75
2022-10-05T23:01:52.749Z,88.53
2022-10-05T23:04:19.289Z,89.29
2022-10-05T23:06:45.690Z,89.14
2022-10-05T23:09:12.090Z,89.80
2022-10-05T23:11:38.507Z,89.56
2022-10-05T23:14:04.957Z,90.39
2022-10-05T23:16:31.703Z,88.74
2022-10-05T23:18:59.066Z,89.37
2022-10-05T23:21:28.844Z,89.47
2022-10-05T23:23:55.273Z,88.75
2022-10-05T23:26:24.139Z,88.89
2022-10-05T23:28:51.056Z,89.04
2022-10-05T23:31:27.098Z,88.78
2022-10-05T23:33:53.577Z,89.55
2022-10-05T23:36:22.532Z,88.54
2022-10-05T23:38:49.454Z,89.23
2022-10-05T23:41:16.270Z,88.99
2022-10-05T23:43:43.610Z,89.21
2022-10-05T23:46:10.406Z,89.08
2022-10-05T23:48:39.714Z,89.76
2022-10-05T23:51:08.858Z,88.93
2022-10-05T23:53:35.535Z,87.92
2022-10-05T23:56:02.397Z,88.36
2022-10-05T23:58:29.146Z,89.31
